Time;durP1;ratioP1;P1;durP2;ratioP2;P2;SDS_P1;SDS_P2;PMS_P1;PMS_P2;Temp;Humidity;BMP_temperature;BMP_pressure;BME280_temperature;BME280_humidity;BME280_pressure;Samples;Min_cycle;Max_cycle;Signal;HPM_P1;HPM_P2
2022/07/25 00:02:15;;;;;;;10.50;6.50;;;13.10;99.90;;;;;;5074423;28;20204;-73
2022/07/25 00:04:46;;;;;;;11.15;6.68;;;13.20;99.90;;;;;;5073798;28;20193;-72
2022/07/25 00:07:17;;;;;;;11.60;6.50;;;13.40;99.90;;;;;;5074257;28;20193;-72
2022/07/25 00:09:49;;;;;;;12.80;6.40;;;13.50;99.90;;;;;;5073698;28;20197;-78
2022/07/25 00:12:20;;;;;;;11.23;6.15;;;13.60;99.90;;;;;;5073403;28;20192;-76
2022/07/25 00:14:51;;;;;;;8.30;5.95;;;13.70;99.90;;;;;;5073136;28;20189;-78
2022/07/25 00:17:21;;;;;;;10.40;6.45;;;13.80;99.90;;;;;;5073832;28;20192;-75
2022/07/25 00:19:52;;;;;;;9.20;6.00;;;13.90;99.90;;;;;;5072308;28;20220;-78
2022/07/25 00:22:23;;;;;;;11.65;6.65;;;14.00;99.90;;;;;;5083732;28;20188;-74
2022/07/25 00:24:55;;;;;;;12.20;6.97;;;14.10;99.90;;;;;;5072622;28;20185;-80
2022/07/25 00:27:26;;;;;;;11.00;6.55;;;14.20;99.90;;;;;;5073195;28;20181;-76
2022/07/25 00:29:57;;;;;;;32.75;25.67;;;14.30;99.90;;;;;;5073457;28;20278;-77
2022/07/25 00:32:27;;;;;;;21.50;14.13;;;14.30;99.90;;;;;;5073656;28;20201;-78
2022/07/25 00:34:58;;;;;;;11.77;7.95;;;14.50;99.90;;;;;;5072551;28;20244;-74
2022/07/25 00:37:28;;;;;;;15.80;9.38;;;14.60;99.90;;;;;;5072605;28;20189;-72
2022/07/25 00:40:01;;;;;;;12.77;7.03;;;14.70;99.90;;;;;;5073008;28;20216;-72
2022/07/25 00:42:32;;;;;;;10.77;6.60;;;14.80;99.90;;;;;;5070285;28;20231;-76
2022/07/25 00:45:02;;;;;;;9.90;7.32;;;14.90;99.90;;;;;;5073395;28;20189;-77
2022/07/25 00:47:33;;;;;;;11.68;6.75;;;15.00;99.90;;;;;;5072927;28;20193;-77
2022/07/25 00:50:04;;;;;;;14.68;6.60;;;15.10;99.90;;;;;;5073277;28;20204;-76
2022/07/25 00:52:35;;;;;;;9.35;6.15;;;15.10;99.90;;;;;;5072779;28;20189;-77
2022/07/25 00:55:08;;;;;;;8.73;6.05;;;15.10;99.90;;;;;;5072528;28;20228;-77
2022/07/25 00:57:38;;;;;;;10.25;6.22;;;15.20;99.90;;;;;;5072646;28;20193;-77
2022/07/25 01:00:12;;;;;;;11.23;6.10;;;15.40;99.90;;;;;;5072894;28;20224;-77
2022/07/25 01:02:43;;;;;;;9.73;5.60;;;15.50;99.90;;;;;;5073136;28;20192;-77
2022/07/25 01:05:14;;;;;;;10.38;6.05;;;15.50;99.90;;;;;;5091152;28;20196;-79
2022/07/25 01:07:45;;;;;;;9.00;5.70;;;15.70;99.90;;;;;;5093677;28;20192;-79
2022/07/25 01:10:18;;;;;;;9.88;5.93;;;15.80;99.90;;;;;;5085648;28;20196;-77
2022/07/25 01:12:52;;;;;;;11.65;6.30;;;15.80;99.90;;;;;;5072502;28;20185;-79
2022/07/25 01:15:24;;;;;;;11.45;5.57;;;15.90;99.90;;;;;;5072803;28;20258;-74
2022/07/25 01:17:54;;;;;;;9.57;6.18;;;16.00;99.90;;;;;;5074053;28;20185;-78
2022/07/25 01:20:28;;;;;;;11.20;6.93;;;16.10;99.90;;;;;;5071887;28;20447;-77
2022/07/25 01:22:59;;;;;;;9.35;6.13;;;16.10;99.90;;;;;;5073481;28;20197;-72
2022/07/25 01:25:30;;;;;;;10.85;6.35;;;16.20;99.90;;;;;;5073053;28;20185;-72
2022/07/25 01:28:00;;;;;;;10.52;6.45;;;16.30;99.90;;;;;;5073336;28;20196;-73
2022/07/25 01:30:31;;;;;;;8.98;5.70;;;16.40;99.90;;;;;;5072928;28;20290;-73
2022/07/25 01:33:02;;;;;;;11.45;6.15;;;16.40;99.90;;;;;;5072469;28;20185;-77
2022/07/25 01:35:34;;;;;;;12.25;5.72;;;16.40;99.90;;;;;;5070476;28;20196;-78
2022/07/25 01:38:05;;;;;;;8.43;4.72;;;16.40;99.90;;;;;;5073058;28;20659;-72
2022/07/25 01:40:36;;;;;;;8.57;5.25;;;16.40;99.90;;;;;;5072080;28;20310;-77
2022/07/25 01:43:06;;;;;;;10.60;5.55;;;16.40;99.90;;;;;;5069832;28;20189;-77
2022/07/25 01:45:37;;;;;;;9.52;5.13;;;16.40;99.90;;;;;;5072666;28;20189;-76
2022/07/25 01:48:08;;;;;;;7.68;4.70;;;16.50;99.90;;;;;;5072122;28;20189;-77
2022/07/25 01:50:41;;;;;;;8.35;4.55;;;16.60;99.90;;;;;;5072142;28;20564;-76
2022/07/25 01:53:11;;;;;;;7.55;4.40;;;16.60;99.90;;;;;;5072130;28;20192;-77
2022/07/25 01:55:42;;;;;;;8.73;4.32;;;16.70;99.90;;;;;;5072145;28;20200;-77
2022/07/25 01:58:13;;;;;;;6.78;3.63;;;16.70;99.90;;;;;;5072087;28;20196;-76
2022/07/25 02:00:44;;;;;;;8.48;3.25;;;16.80;99.90;;;;;;5072304;28;20220;-76
2022/07/25 02:03:32;;;;;;;7.78;3.50;;;16.80;99.90;;;;;;5072717;28;20271;-77
2022/07/25 02:06:07;;;;;;;4.32;2.75;;;16.90;99.90;;;;;;5072222;28;20189;-76
2022/07/25 02:08:38;;;;;;;5.05;2.92;;;17.00;99.90;;;;;;5061815;28;20214;-76
2022/07/25 02:11:09;;;;;;;9.52;2.88;;;17.00;99.90;;;;;;5071725;28;20268;-77
2022/07/25 02:13:39;;;;;;;6.03;2.45;;;17.10;99.90;;;;;;5071614;28;20193;-76
2022/07/25 02:16:10;;;;;;;8.05;2.35;;;17.30;99.90;;;;;;5072143;28;20189;-78
2022/07/25 02:18:41;;;;;;;9.20;2.65;;;17.30;99.90;;;;;;5072050;28;20641;-78
2022/07/25 02:21:13;;;;;;;4.32;2.05;;;17.30;99.90;;;;;;5072111;28;20217;-76
2022/07/25 02:23:47;;;;;;;4.30;2.45;;;17.30;99.90;;;;;;5071653;28;20208;-77
2022/07/25 02:26:17;;;;;;;7.05;2.55;;;17.30;99.90;;;;;;5071969;28;20548;-77
2022/07/25 02:28:48;;;;;;;5.53;2.72;;;17.40;99.90;;;;;;5072423;28;20229;-77
2022/07/25 02:31:19;;;;;;;3.47;1.10;;;17.50;99.90;;;;;;5075629;28;20199;-77
2022/07/25 02:33:50;;;;;;;2.63;1.20;;;17.60;99.90;;;;;;5074672;28;20212;-77
2022/07/25 02:36:22;;;;;;;2.38;1.00;;;17.60;99.90;;;;;;5075225;28;20636;-77
2022/07/25 02:38:53;;;;;;;1.60;1.05;;;17.70;99.90;;;;;;5075505;28;20203;-78
2022/07/25 02:41:24;;;;;;;3.88;1.52;;;17.70;99.90;;;;;;5075609;28;20217;-76
2022/07/25 02:43:54;;;;;;;2.80;1.08;;;17.90;99.90;;;;;;5062295;28;20243;-76
2022/07/25 02:46:25;;;;;;;2.75;1.10;;;17.90;99.90;;;;;;5075353;28;20196;-76
2022/07/25 02:48:56;;;;;;;2.33;1.10;;;17.90;99.90;;;;;;5075496;28;20204;-76
2022/07/25 02:51:28;;;;;;;2.55;1.10;;;17.90;99.90;;;;;;5074546;28;20189;-77
2022/07/25 02:53:59;;;;;;;3.28;1.10;;;18.00;99.90;;;;;;5075302;28;20200;-78
2022/07/25 02:56:31;;;;;;;0.95;0.90;;;18.10;99.90;;;;;;5074949;28;20185;-76
2022/07/25 02:59:02;;;;;;;2.58;1.30;;;18.10;99.90;;;;;;5075435;28;20553;-77
2022/07/25 03:01:33;;;;;;;2.55;1.20;;;18.20;99.90;;;;;;5074820;28;20675;-78
2022/07/25 03:04:03;;;;;;;1.75;1.38;;;18.20;99.90;;;;;;5075303;28;20199;-77
2022/07/25 03:06:36;;;;;;;1.92;1.38;;;18.30;99.90;;;;;;5075071;28;20554;-77
2022/07/25 03:09:07;;;;;;;3.22;1.98;;;18.30;99.90;;;;;;5075224;28;20562;-76
2022/07/25 03:11:38;;;;;;;3.00;1.73;;;18.30;99.90;;;;;;5074312;28;20196;-76
2022/07/25 03:14:10;;;;;;;2.10;1.80;;;18.30;99.90;;;;;;5074854;28;20193;-76
2022/07/25 03:16:41;;;;;;;2.22;1.38;;;18.30;99.90;;;;;;5074618;28;20193;-77
2022/07/25 03:19:13;;;;;;;3.17;1.33;;;18.30;99.90;;;;;;5073717;28;20681;-76
2022/07/25 03:21:45;;;;;;;2.72;1.30;;;18.30;99.90;;;;;;5074582;28;20227;-78
2022/07/25 03:24:17;;;;;;;3.30;1.15;;;18.40;99.90;;;;;;5074932;28;20234;-77
2022/07/25 03:26:48;;;;;;;3.20;1.10;;;18.30;99.90;;;;;;5059545;28;20198;-76
2022/07/25 03:29:19;;;;;;;1.83;1.20;;;18.30;99.90;;;;;;5054724;28;20720;-76
2022/07/25 03:31:49;;;;;;;1.50;1.23;;;18.40;99.90;;;;;;5063187;28;20582;-75
2022/07/25 03:34:20;;;;;;;1.95;1.02;;;18.30;99.90;;;;;;5073945;28;20586;-73
2022/07/25 03:36:52;;;;;;;0.85;0.80;;;18.40;99.90;;;;;;5073018;28;20181;-72
2022/07/25 03:39:23;;;;;;;1.80;1.00;;;18.40;99.90;;;;;;5074132;28;20222;-72
2022/07/25 03:41:54;;;;;;;1.15;0.80;;;18.40;99.90;;;;;;5073944;28;20213;-73
2022/07/25 03:44:26;;;;;;;1.42;1.00;;;18.40;99.90;;;;;;5074621;28;20193;-71
2022/07/25 03:46:56;;;;;;;1.00;0.80;;;18.40;99.90;;;;;;5074589;28;20189;-74
2022/07/25 03:49:27;;;;;;;1.85;1.00;;;18.40;99.90;;;;;;5054455;28;20190;-73
2022/07/25 03:52:00;;;;;;;1.42;0.80;;;18.50;99.90;;;;;;5054336;28;20559;-73
2022/07/25 03:54:30;;;;;;;3.72;1.20;;;18.50;99.90;;;;;;5054505;28;20197;-73
2022/07/25 03:57:01;;;;;;;3.83;1.13;;;18.60;99.90;;;;;;5054407;28;20189;-77
2022/07/25 03:59:32;;;;;;;3.22;1.08;;;18.60;99.90;;;;;;5057218;28;20533;-77
2022/07/25 04:02:02;;;;;;;3.25;1.00;;;18.70;99.90;;;;;;5074410;28;20217;-75
2022/07/25 04:04:33;;;;;;;4.20;1.27;;;18.70;99.90;;;;;;5074109;28;20197;-77
2022/07/25 04:07:06;;;;;;;4.70;1.50;;;18.60;99.90;;;;;;5074186;28;20199;-78
2022/07/25 04:09:36;;;;;;;4.78;1.30;;;18.40;99.90;;;;;;5074080;28;20193;-76
2022/07/25 04:12:07;;;;;;;5.60;1.17;;;18.30;99.90;;;;;;5073982;28;20191;-78
2022/07/25 04:14:38;;;;;;;5.45;1.30;;;18.20;99.90;;;;;;5074078;28;20194;-77
2022/07/25 04:17:09;;;;;;;3.15;1.10;;;18.20;99.90;;;;;;5074011;28;20189;-77
2022/07/25 04:19:40;;;;;;;2.83;1.25;;;18.30;99.90;;;;;;5073380;28;20242;-76
2022/07/25 04:22:12;;;;;;;4.25;1.00;;;18.30;99.90;;;;;;5072948;28;20220;-76
2022/07/25 04:24:43;;;;;;;5.07;1.30;;;18.40;99.90;;;;;;5062706;28;20189;-77
2022/07/25 04:27:13;;;;;;;4.20;0.98;;;18.30;99.90;;;;;;5073387;28;20644;-78
2022/07/25 04:29:44;;;;;;;3.47;0.93;;;18.10;99.90;;;;;;5074532;28;20246;-77
2022/07/25 04:32:15;;;;;;;3.47;0.88;;;18.10;99.90;;;;;;5081203;28;20567;-75
2022/07/25 04:34:46;;;;;;;4.05;0.98;;;18.10;99.90;;;;;;5069354;28;20217;-73
2022/07/25 04:37:19;;;;;;;4.07;0.88;;;18.00;99.90;;;;;;5072428;28;20193;-77
2022/07/25 04:39:49;;;;;;;1.73;0.68;;;18.00;99.90;;;;;;5073458;28;20213;-77
2022/07/25 04:42:20;;;;;;;4.38;0.80;;;17.90;99.90;;;;;;5073342;28;20209;-78
2022/07/25 04:44:50;;;;;;;2.85;0.70;;;17.90;99.90;;;;;;5073451;28;20189;-77
2022/07/25 04:47:21;;;;;;;2.13;0.65;;;17.90;99.90;;;;;;5073365;28;20189;-78
2022/07/25 04:49:52;;;;;;;2.10;0.63;;;18.00;99.90;;;;;;5088747;28;20662;-77
2022/07/25 04:52:24;;;;;;;4.18;0.70;;;18.10;99.90;;;;;;5092687;28;20242;-77
2022/07/25 04:54:55;;;;;;;1.48;0.57;;;18.10;99.90;;;;;;5077388;28;20193;-78
2022/07/25 04:57:26;;;;;;;2.05;0.65;;;18.10;99.90;;;;;;5073357;28;20188;-77
2022/07/25 04:59:57;;;;;;;1.25;0.90;;;18.30;99.90;;;;;;5073113;28;20188;-78
2022/07/25 05:02:28;;;;;;;2.33;0.70;;;18.40;99.90;;;;;;5073119;28;20225;-77
2022/07/25 05:04:59;;;;;;;1.80;0.60;;;18.50;99.90;;;;;;5073243;28;20192;-77
2022/07/25 05:07:31;;;;;;;1.85;0.70;;;18.50;99.90;;;;;;5072995;28;20189;-75
2022/07/25 05:10:02;;;;;;;0.88;0.60;;;18.50;99.90;;;;;;5072995;28;20200;-76
2022/07/25 05:12:32;;;;;;;1.10;0.70;;;18.50;99.90;;;;;;5073005;28;20193;-77
2022/07/25 05:15:03;;;;;;;1.30;0.68;;;18.50;99.90;;;;;;5077336;28;20208;-77
2022/07/25 05:17:34;;;;;;;1.60;0.80;;;18.50;99.90;;;;;;5087457;28;20197;-77
2022/07/25 05:20:04;;;;;;;3.90;0.90;;;18.50;99.90;;;;;;5081169;28;20197;-78
2022/07/25 05:22:37;;;;;;;3.08;0.95;;;18.40;99.90;;;;;;5092512;28;20267;-78
2022/07/25 05:25:11;;;;;;;4.72;0.80;;;18.20;99.90;;;;;;5076886;28;20203;-78
2022/07/25 05:27:42;;;;;;;3.92;1.00;;;18.00;99.90;;;;;;5084445;28;20195;-77
2022/07/25 05:30:14;;;;;;;3.60;0.77;;;17.70;99.90;;;;;;5064052;28;20242;-77
2022/07/25 05:32:45;;;;;;;4.68;0.93;;;17.60;99.90;;;;;;5072390;28;20212;-77
2022/07/25 05:35:15;;;;;;;3.20;0.85;;;17.40;99.90;;;;;;5071707;28;20632;-78
2022/07/25 05:37:48;;;;;;;4.97;1.00;;;17.40;99.90;;;;;;5072783;28;20185;-78
2022/07/25 05:40:19;;;;;;;2.95;1.00;;;17.30;99.90;;;;;;5072498;28;20200;-79
2022/07/25 05:42:49;;;;;;;4.78;0.80;;;17.20;99.90;;;;;;5072644;28;20256;-78
2022/07/25 05:45:20;;;;;;;4.43;1.35;;;17.20;99.90;;;;;;5074038;28;20200;-75
2022/07/25 05:47:51;;;;;;;3.58;0.90;;;17.10;99.90;;;;;;5087182;28;20185;-78
2022/07/25 05:50:21;;;;;;;5.93;1.20;;;17.10;99.90;;;;;;5086136;28;20550;-78
2022/07/25 05:52:54;;;;;;;2.30;1.00;;;17.00;99.90;;;;;;5077341;28;20193;-77
2022/07/25 05:55:24;;;;;;;7.05;1.30;;;17.00;99.90;;;;;;5092742;28;20196;-77
2022/07/25 05:57:55;;;;;;;5.68;1.27;;;17.00;99.90;;;;;;5086523;28;20559;-74
2022/07/25 06:00:26;;;;;;;5.97;1.00;;;16.90;99.90;;;;;;5092723;28;20222;-78
2022/07/25 06:03:00;;;;;;;4.47;1.15;;;16.90;99.90;;;;;;5093793;28;20227;-77
2022/07/25 06:05:30;;;;;;;5.70;1.00;;;16.90;99.90;;;;;;5096793;28;20655;-78
2022/07/25 06:08:03;;;;;;;3.65;1.00;;;17.00;99.90;;;;;;5095407;28;20599;-78
2022/07/25 06:10:33;;;;;;;3.58;0.90;;;17.10;99.90;;;;;;5072191;28;20185;-78
2022/07/25 06:13:04;;;;;;;7.80;1.00;;;17.10;99.90;;;;;;5056210;28;20189;-76
2022/07/25 06:15:35;;;;;;;2.88;1.00;;;17.20;99.90;;;;;;5063504;28;20365;-78
2022/07/25 06:18:05;;;;;;;6.25;1.10;;;17.20;99.90;;;;;;5076251;28;20196;-77
2022/07/25 06:20:36;;;;;;;4.50;0.90;;;17.10;99.90;;;;;;5076150;28;20525;-79
2022/07/25 06:23:08;;;;;;;4.93;1.00;;;17.10;99.90;;;;;;5076118;28;20212;-77
2022/07/25 06:25:39;;;;;;;4.72;0.98;;;17.10;99.90;;;;;;5076036;28;20197;-77
2022/07/25 06:28:10;;;;;;;4.32;1.00;;;17.00;99.90;;;;;;5076160;28;20193;-77
2022/07/25 06:30:40;;;;;;;3.03;1.20;;;17.00;99.90;;;;;;5075641;28;20696;-73
2022/07/25 06:33:11;;;;;;;3.08;1.00;;;16.90;99.90;;;;;;5075660;28;20216;-73
2022/07/25 06:35:42;;;;;;;3.53;0.80;;;16.80;99.90;;;;;;5075526;28;20196;-73
2022/07/25 06:38:14;;;;;;;3.33;0.85;;;16.70;99.90;;;;;;5075830;28;20193;-73
2022/07/25 06:40:45;;;;;;;3.42;0.98;;;16.60;99.90;;;;;;5075898;28;20192;-73
2022/07/25 06:43:16;;;;;;;3.25;0.88;;;16.50;99.90;;;;;;5075657;28;20220;-72
2022/07/25 06:45:46;;;;;;;4.05;1.10;;;16.50;99.90;;;;;;5075443;28;20200;-72
2022/07/25 06:48:17;;;;;;;3.75;0.90;;;16.50;99.90;;;;;;5075579;28;20189;-72
2022/07/25 06:50:48;;;;;;;7.32;1.00;;;16.40;99.90;;;;;;5075444;28;20185;-72
2022/07/25 06:53:21;;;;;;;3.45;1.00;;;16.30;99.90;;;;;;5075289;28;20239;-73
2022/07/25 06:55:52;;;;;;;4.38;1.05;;;16.30;99.90;;;;;;5071613;28;20231;-72
2022/07/25 06:58:22;;;;;;;5.22;0.80;;;16.20;99.90;;;;;;5075520;28;20192;-73
2022/07/25 07:00:53;;;;;;;2.42;0.80;;;16.10;99.90;;;;;;5074427;28;20521;-72
2022/07/25 07:03:24;;;;;;;3.10;0.70;;;16.10;99.90;;;;;;5074963;28;20626;-74
2022/07/25 07:05:54;;;;;;;3.53;1.10;;;16.00;99.90;;;;;;5075307;28;20196;-73
2022/07/25 07:08:27;;;;;;;1.92;0.70;;;16.00;99.90;;;;;;5075291;28;20546;-72
2022/07/25 07:10:57;;;;;;;2.45;0.82;;;15.90;99.90;;;;;;5075437;28;20196;-71
2022/07/25 07:13:28;;;;;;;2.20;0.90;;;15.80;99.90;;;;;;5074614;28;20192;-73
2022/07/25 07:15:59;;;;;;;2.28;0.70;;;15.80;99.90;;;;;;5074281;28;20628;-73
2022/07/25 07:18:30;;;;;;;2.83;0.80;;;15.80;99.90;;;;;;5075170;28;20185;-72
2022/07/25 07:21:00;;;;;;;2.80;0.90;;;15.70;99.90;;;;;;5075129;28;20203;-73
2022/07/25 07:23:33;;;;;;;6.25;0.90;;;15.70;99.90;;;;;;5075030;28;20221;-73
2022/07/25 07:26:04;;;;;;;4.55;1.00;;;15.70;99.90;;;;;;5075045;28;20636;-72
2022/07/25 07:28:35;;;;;;;1.55;0.80;;;15.70;99.90;;;;;;5074267;28;20189;-72
2022/07/25 07:31:05;;;;;;;2.97;1.10;;;15.60;99.90;;;;;;5074984;28;20234;-72
2022/07/25 07:33:37;;;;;;;2.83;1.00;;;15.60;99.90;;;;;;5083398;22;20212;-75
2022/07/25 07:36:09;;;;;;;3.25;0.95;;;15.50;99.90;;;;;;5031245;28;20187;-76
2022/07/25 07:38:43;;;;;;;3.70;1.00;;;15.40;99.90;;;;;;5034505;28;20190;-75
2022/07/25 07:41:14;;;;;;;4.20;1.08;;;15.40;99.90;;;;;;5034250;28;20648;-75
2022/07/25 07:43:45;;;;;;;3.60;1.05;;;15.40;99.90;;;;;;5033599;28;20254;-76
2022/07/25 07:46:16;;;;;;;3.95;1.10;;;15.30;99.90;;;;;;5034106;28;20191;-75
2022/07/25 07:48:46;;;;;;;7.10;1.20;;;15.30;99.90;;;;;;5033571;28;20653;-75
2022/07/25 07:51:17;;;;;;;4.88;1.20;;;15.30;99.90;;;;;;5034042;28;20641;-75
2022/07/25 07:56:36;;;;;;;3.22;1.10;;;15.20;99.90;;;;;;5033227;28;20193;-75
2022/07/25 07:59:07;;;;;;;3.65;1.35;;;15.20;99.90;;;;;;5031324;28;20205;-75
2022/07/25 08:01:38;;;;;;;5.28;1.27;;;15.10;99.90;;;;;;5033486;28;20194;-75
2022/07/25 08:04:08;;;;;;;5.30;1.20;;;15.10;99.90;;;;;;5033872;28;20218;-76
2022/07/25 08:06:39;;;;;;;5.82;1.35;;;15.10;99.90;;;;;;5033288;28;20202;-75
2022/07/25 08:09:12;;;;;;;5.88;1.33;;;15.10;99.90;;;;;;5032889;28;20193;-76
2022/07/25 08:11:42;;;;;;;5.13;1.23;;;15.10;99.90;;;;;;5032798;28;20546;-75
2022/07/25 08:14:13;;;;;;;4.25;1.20;;;15.00;99.90;;;;;;5032995;28;20563;-75
2022/07/25 08:16:44;;;;;;;5.72;1.50;;;15.00;99.90;;;;;;5033301;28;20321;-75
2022/07/25 08:19:15;;;;;;;5.50;1.20;;;15.00;99.90;;;;;;5033284;28;20197;-76
2022/07/25 08:21:46;;;;;;;5.00;1.35;;;15.00;99.90;;;;;;5032607;28;20190;-76
2022/07/25 08:24:21;;;;;;;4.85;1.27;;;15.00;99.90;;;;;;5032889;28;20210;-76
2022/07/25 08:26:52;;;;;;;7.45;1.33;;;15.00;99.90;;;;;;5032775;28;20189;-75
2022/07/25 08:29:23;;;;;;;6.53;1.50;;;15.00;99.90;;;;;;5034609;28;20210;-76
2022/07/25 08:31:54;;;;;;;4.97;1.88;;;15.00;99.90;;;;;;5031661;28;20218;-75
2022/07/25 08:34:24;;;;;;;4.88;2.35;;;15.00;99.90;;;;;;5045463;28;20665;-75
2022/07/25 08:36:55;;;;;;;5.05;1.85;;;15.00;99.90;;;;;;5052114;28;20190;-76
2022/07/25 08:39:27;;;;;;;3.42;2.00;;;14.90;99.90;;;;;;5053165;28;20196;-78
2022/07/25 08:41:58;;;;;;;4.95;1.90;;;14.90;99.90;;;;;;5051506;28;20202;-77
2022/07/25 08:44:34;;;;;;;8.85;1.90;;;14.90;99.90;;;;;;5052253;28;20186;-77
2022/07/25 08:47:05;;;;;;;8.77;2.00;;;14.90;99.90;;;;;;5051230;28;20209;-77
2022/07/25 08:49:37;;;;;;;5.70;1.73;;;14.80;99.90;;;;;;5052820;28;20189;-78
2022/07/25 08:52:09;;;;;;;7.97;2.50;;;14.80;99.90;;;;;;5049293;28;20186;-77
2022/07/25 08:54:42;;;;;;;4.57;2.03;;;14.80;99.90;;;;;;5051723;28;20212;-77
2022/07/25 08:57:13;;;;;;;7.70;2.53;;;14.80;99.90;;;;;;5052686;28;20264;-77
2022/07/25 08:59:43;;;;;;;8.30;2.47;;;14.70;99.90;;;;;;5052235;28;20204;-78
2022/07/25 09:02:16;;;;;;;12.20;2.40;;;14.70;99.90;;;;;;5052467;28;20201;-78
2022/07/25 09:04:46;;;;;;;9.57;2.08;;;14.70;99.90;;;;;;5052220;28;20197;-78
2022/07/25 09:07:17;;;;;;;9.93;2.40;;;14.70;99.90;;;;;;5052465;28;20186;-77
2022/07/25 09:09:50;;;;;;;7.65;2.15;;;14.60;99.90;;;;;;5052040;28;20189;-78
2022/07/25 09:12:28;;;;;;;7.43;2.00;;;14.70;99.90;;;;;;5052719;28;20247;-77
2022/07/25 09:14:59;;;;;;;7.28;2.00;;;14.60;99.90;;;;;;5051936;28;20228;-77
2022/07/25 09:17:30;;;;;;;7.18;2.47;;;14.60;99.90;;;;;;5052008;28;20189;-77
2022/07/25 09:20:00;;;;;;;6.65;2.20;;;14.60;99.90;;;;;;5052315;28;20189;-78
2022/07/25 09:22:32;;;;;;;11.27;2.47;;;14.60;99.90;;;;;;5051981;28;20553;-77
2022/07/25 09:25:04;;;;;;;9.48;2.30;;;14.50;99.90;;;;;;5051930;28;20185;-77
2022/07/25 09:27:36;;;;;;;6.72;2.63;;;14.50;99.90;;;;;;5050139;28;20213;-77
2022/07/25 09:30:15;;;;;;;9.00;2.20;;;14.50;99.90;;;;;;5048849;28;20632;-78
2022/07/25 09:32:46;;;;;;;9.55;2.60;;;14.40;99.90;;;;;;5051540;28;20571;-77
2022/07/25 09:35:17;;;;;;;13.38;2.60;;;14.50;99.90;;;;;;5051667;28;20727;-78
2022/07/25 09:37:48;;;;;;;6.07;2.30;;;14.40;99.90;;;;;;5051602;28;20190;-77
2022/07/25 09:40:20;;;;;;;6.03;2.45;;;14.40;99.90;;;;;;5052118;28;20190;-77
2022/07/25 09:42:53;;;;;;;7.97;2.25;;;14.40;99.90;;;;;;5051772;28;20205;-77
2022/07/25 09:45:24;;;;;;;7.85;2.50;;;14.40;99.90;;;;;;5051974;28;20186;-77
2022/07/25 09:47:56;;;;;;;5.90;2.63;;;14.40;99.90;;;;;;5050765;28;20244;-77
2022/07/25 09:50:29;;;;;;;6.15;2.40;;;14.30;99.90;;;;;;5051757;28;20194;-77
2022/07/25 09:53:01;;;;;;;6.78;2.35;;;14.30;99.90;;;;;;5051343;28;20190;-77
2022/07/25 09:55:34;;;;;;;8.60;2.63;;;14.20;99.90;;;;;;5049185;28;20276;-76
2022/07/25 09:58:05;;;;;;;8.95;2.67;;;14.20;99.90;;;;;;5051753;28;20198;-76
2022/07/25 10:00:35;;;;;;;9.80;3.20;;;14.20;99.90;;;;;;5041683;28;20244;-76
2022/07/25 10:03:19;;;;;;;10.18;2.90;;;14.10;99.90;;;;;;5048255;28;20206;-76
2022/07/25 10:06:03;;;;;;;9.45;2.80;;;14.10;99.90;;;;;;5051466;28;20197;-76
2022/07/25 10:08:39;;;;;;;8.40;3.15;;;14.00;99.90;;;;;;5049080;28;20196;-76
2022/07/25 10:11:21;;;;;;;9.10;2.92;;;13.90;99.90;;;;;;5048823;28;20189;-76
2022/07/25 10:13:53;;;;;;;12.55;3.30;;;13.90;99.90;;;;;;5051439;28;20189;-76
2022/07/25 10:16:24;;;;;;;8.70;2.85;;;13.80;99.90;;;;;;5051691;28;20196;-76
2022/07/25 10:18:56;;;;;;;9.25;2.90;;;13.80;99.90;;;;;;5050541;28;20186;-77
2022/07/25 10:21:28;;;;;;;7.10;3.15;;;13.70;99.90;;;;;;5051574;28;20205;-77
2022/07/25 10:24:06;;;;;;;12.70;3.17;;;13.60;99.90;;;;;;5050595;28;20217;-76
2022/07/25 10:26:40;;;;;;;10.07;3.15;;;13.60;99.90;;;;;;5049382;28;20201;-76
2022/07/25 10:29:12;;;;;;;8.05;3.28;;;13.50;99.90;;;;;;5049110;28;20645;-76
2022/07/25 10:31:45;;;;;;;9.85;3.50;;;13.50;99.90;;;;;;5051381;28;20190;-76
2022/07/25 10:34:16;;;;;;;10.13;2.85;;;13.40;99.90;;;;;;5050822;28;20233;-77
2022/07/25 10:36:49;;;;;;;7.72;3.10;;;13.40;99.90;;;;;;5051103;28;20186;-76
2022/07/25 10:39:22;;;;;;;6.55;2.90;;;13.40;99.90;;;;;;5051613;28;20220;-77
2022/07/25 10:42:01;;;;;;;9.02;3.50;;;13.40;99.90;;;;;;5051485;28;20692;-76
2022/07/25 10:44:41;;;;;;;7.45;3.33;;;13.40;99.90;;;;;;5048539;28;20216;-77
2022/07/25 10:47:13;;;;;;;7.75;3.40;;;13.40;99.90;;;;;;5049100;28;20185;-76
2022/07/25 10:49:46;;;;;;;5.68;3.03;;;13.30;99.90;;;;;;5051909;28;20564;-76
2022/07/25 10:52:19;;;;;;;7.60;2.90;;;13.40;99.90;;;;;;5054718;28;20596;-76
2022/07/25 10:54:57;;;;;;;6.65;3.10;;;13.40;99.90;;;;;;5054547;28;20208;-77
2022/07/25 10:57:30;;;;;;;8.45;3.72;;;13.40;99.90;;;;;;5054977;28;20212;-77
2022/07/25 11:00:09;;;;;;;10.73;3.40;;;13.30;99.90;;;;;;5054477;28;20547;-77
2022/07/25 11:02:40;;;;;;;6.47;2.80;;;13.30;99.90;;;;;;5053402;28;20201;-77
2022/07/25 11:05:11;;;;;;;7.15;2.90;;;13.30;99.90;;;;;;5054518;28;20232;-77
2022/07/25 11:07:53;;;;;;;6.95;2.45;;;13.30;99.90;;;;;;5054663;28;20189;-77
2022/07/25 11:10:29;;;;;;;5.45;2.45;;;13.30;99.90;;;;;;5054858;28;20216;-77
2022/07/25 11:13:01;;;;;;;6.32;2.90;;;13.20;99.90;;;;;;5053841;28;20185;-77
2022/07/25 11:15:33;;;;;;;5.20;2.60;;;13.20;99.90;;;;;;5051887;28;20189;-77
2022/07/25 11:18:04;;;;;;;6.78;2.80;;;13.20;99.90;;;;;;5050834;28;20186;-77
2022/07/25 11:20:34;;;;;;;6.32;2.60;;;13.20;99.90;;;;;;5051758;28;20545;-77
2022/07/25 11:23:05;;;;;;;4.45;2.33;;;13.20;99.90;;;;;;5054230;28;20189;-77
2022/07/25 11:25:36;;;;;;;5.03;2.38;;;13.20;99.90;;;;;;5054271;28;20649;-77
2022/07/25 11:28:08;;;;;;;7.13;2.50;;;13.20;99.90;;;;;;5054314;28;20197;-77
2022/07/25 11:30:39;;;;;;;5.90;2.97;;;13.10;99.90;;;;;;5053705;28;20194;-77
2022/07/25 11:33:11;;;;;;;7.13;2.90;;;13.10;99.90;;;;;;5053764;28;20220;-77
2022/07/25 11:35:41;;;;;;;6.82;2.72;;;13.10;99.90;;;;;;5053969;28;20233;-77
2022/07/25 11:38:16;;;;;;;4.57;2.72;;;13.10;99.90;;;;;;5053992;28;20186;-78
2022/07/25 11:40:47;;;;;;;6.10;3.25;;;13.00;99.90;;;;;;5053388;28;20247;-77
2022/07/25 11:43:25;;;;;;;7.88;3.17;;;13.00;99.90;;;;;;5053796;28;20240;-77
2022/07/25 11:46:03;;;;;;;5.13;2.53;;;13.00;99.90;;;;;;5052957;28;20185;-77
2022/07/25 11:48:36;;;;;;;5.95;2.80;;;12.90;99.90;;;;;;5051510;28;20580;-76
2022/07/25 11:51:15;;;;;;;6.28;3.00;;;12.90;99.90;;;;;;5053636;28;20201;-77
2022/07/25 11:53:50;;;;;;;6.03;3.30;;;12.90;99.90;;;;;;5053357;28;20474;-77
2022/07/25 11:56:23;;;;;;;5.85;3.20;;;12.80;99.90;;;;;;5053819;28;20264;-78
2022/07/25 11:59:00;;;;;;;5.95;2.63;;;12.80;99.90;;;;;;5053369;28;20197;-77
2022/07/25 12:01:37;;;;;;;7.22;2.83;;;12.80;99.90;;;;;;5050317;28;20618;-77
2022/07/25 12:04:17;;;;;;;7.20;3.30;;;12.80;99.90;;;;;;5050224;28;20574;-77
2022/07/25 12:06:49;;;;;;;6.18;4.22;;;12.80;99.90;;;;;;5053593;28;20208;-77
2022/07/25 12:09:20;;;;;;;9.52;4.30;;;12.70;99.90;;;;;;5053469;28;20190;-77
2022/07/25 12:11:51;;;;;;;6.97;4.13;;;12.70;99.90;;;;;;5053434;28;20194;-77
2022/07/25 12:14:24;;;;;;;6.95;3.97;;;12.80;99.90;;;;;;5053269;28;20190;-77
2022/07/25 12:16:54;;;;;;;6.43;4.00;;;12.70;99.90;;;;;;5053302;28;20645;-77
2022/07/25 12:19:25;;;;;;;7.53;3.97;;;12.70;99.90;;;;;;5053087;28;20190;-77
2022/07/25 12:21:56;;;;;;;6.07;3.40;;;12.70;99.90;;;;;;5051504;28;20194;-76
2022/07/25 12:24:27;;;;;;;7.97;3.05;;;12.70;99.90;;;;;;5052131;28;20224;-77
2022/07/25 12:26:58;;;;;;;8.60;3.10;;;12.70;99.90;;;;;;5052295;28;20196;-76
2022/07/25 12:29:31;;;;;;;6.32;2.70;;;12.60;99.90;;;;;;5053283;28;20186;-77
2022/07/25 12:32:01;;;;;;;5.68;3.10;;;12.60;99.90;;;;;;5053586;28;20186;-76
2022/07/25 12:34:32;;;;;;;7.78;3.97;;;12.60;99.90;;;;;;5051957;28;20237;-77
2022/07/25 12:37:03;;;;;;;7.70;3.40;;;12.60;99.90;;;;;;5053468;28;20663;-77
2022/07/25 12:39:35;;;;;;;7.90;3.85;;;12.60;99.90;;;;;;5052958;28;20183;-78
2022/07/25 12:42:05;;;;;;;11.50;4.63;;;12.50;99.90;;;;;;5053073;28;20190;-77
2022/07/25 12:44:38;;;;;;;7.95;4.35;;;12.50;99.90;;;;;;5052541;28;20584;-77
2022/07/25 12:47:09;;;;;;;7.53;3.97;;;12.50;99.90;;;;;;5049945;28;20193;-77
2022/07/25 12:49:40;;;;;;;8.23;3.80;;;12.40;99.90;;;;;;5052818;28;20189;-78
2022/07/25 12:52:10;;;;;;;8.85;3.85;;;12.40;99.90;;;;;;5052297;28;20192;-77
2022/07/25 12:54:41;;;;;;;8.80;3.70;;;12.40;99.90;;;;;;5052508;28;20645;-77
2022/07/25 12:57:13;;;;;;;7.25;3.97;;;12.40;99.90;;;;;;5052954;28;20198;-77
2022/07/25 12:59:45;;;;;;;6.80;3.50;;;12.40;99.90;;;;;;5051553;28;20194;-77
2022/07/25 13:02:16;;;;;;;8.65;3.75;;;12.40;99.90;;;;;;5051886;28;20190;-77
2022/07/25 13:04:47;;;;;;;8.00;3.53;;;12.40;99.90;;;;;;5052998;28;20222;-76
2022/07/25 13:07:18;;;;;;;6.78;3.47;;;12.40;99.90;;;;;;5053097;28;20652;-77
2022/07/25 13:09:49;;;;;;;6.80;3.30;;;12.40;99.90;;;;;;5052635;28;20644;-77
2022/07/25 13:12:21;;;;;;;7.10;3.40;;;12.40;99.90;;;;;;5052112;28;20194;-77